createdAt,value
2019-01-27T00:02:12.915Z,98453.61
2019-01-27T00:04:41.349Z,98451.17
2019-01-27T00:07:10.206Z,98447.56
2019-01-27T00:09:38.622Z,98433.19
2019-01-27T00:12:07.109Z,98426.19
2019-01-27T00:14:35.544Z,98421.08
2019-01-27T00:17:04.485Z,98416.05
2019-01-27T00:19:32.937Z,98410.63
2019-01-27T00:22:01.505Z,98411.48
2019-01-27T00:24:29.998Z,98407.63
2019-01-27T00:26:58.466Z,98404.20
2019-01-27T00:29:26.947Z,98399.87
2019-01-27T00:31:58.297Z,98376.75
2019-01-27T00:34:26.773Z,98382.29
2019-01-27T00:36:55.252Z,98385.14
2019-01-27T00:39:23.655Z,98378.46
2019-01-27T00:41:52.062Z,98376.91
2019-01-27T00:44:20.532Z,98376.53
2019-01-27T00:46:48.964Z,98374.19
2019-01-27T00:49:17.384Z,98369.56
2019-01-27T00:51:45.889Z,98372.66
2019-01-27T00:54:14.311Z,98366.43
2019-01-27T00:56:42.717Z,98363.10
2019-01-27T00:59:11.173Z,98363.83
2019-01-27T01:01:39.645Z,98350.38
2019-01-27T01:04:08.183Z,98342.71
2019-01-27T01:06:36.862Z,98337.43
2019-01-27T01:09:08.335Z,98337.84
2019-01-27T01:11:36.928Z,98334.17
2019-01-27T01:14:05.600Z,98326.89
2019-01-27T01:16:34.143Z,98325.62
2019-01-27T01:19:02.564Z,98327.64
2019-01-27T01:21:30.983Z,98316.24
2019-01-27T01:23:59.453Z,98319.19
2019-01-27T01:26:27.916Z,98310.16
2019-01-27T01:28:56.349Z,98309.61
2019-01-27T01:31:25.409Z,98304.06
2019-01-27T01:33:53.838Z,98300.44
2019-01-27T01:36:22.346Z,98304.72
2019-01-27T01:38:50.790Z,98291.47
2019-01-27T01:41:19.222Z,98287.13
2019-01-27T01:43:47.629Z,98288.02
2019-01-27T01:46:16.125Z,98289.72
2019-01-27T01:48:44.591Z,98276.27
2019-01-27T01:51:13.069Z,98281.27
2019-01-27T01:53:41.568Z,98275.44
2019-01-27T01:56:09.986Z,98268.02
2019-01-27T01:58:38.426Z,98258.77
2019-01-27T02:01:06.968Z,98255.27
2019-01-27T02:03:35.435Z,98253.49
2019-01-27T02:06:04.627Z,98244.36
2019-01-27T02:08:33.039Z,98230.90
2019-01-27T02:11:01.803Z,98225.72
2019-01-27T02:13:30.241Z,98219.39
2019-01-27T02:16:03.457Z,98221.82
2019-01-27T02:18:32.529Z,98211.61
2019-01-27T02:21:01.314Z,98212.13
2019-01-27T02:23:29.713Z,98186.34
2019-01-27T02:25:58.181Z,98198.34
2019-01-27T02:28:26.691Z,98193.24
2019-01-27T02:30:55.146Z,98181.65
2019-01-27T02:33:23.656Z,98181.69
2019-01-27T02:35:52.147Z,98174.09
2019-01-27T02:38:20.569Z,98166.78
2019-01-27T02:40:49.017Z,98163.84
2019-01-27T02:43:17.497Z,98160.00
2019-01-27T02:45:45.914Z,98158.77
2019-01-27T02:48:14.407Z,98152.36
2019-01-27T02:50:44.371Z,98142.45
2019-01-27T02:53:12.798Z,98136.56
2019-01-27T02:55:41.207Z,98130.72
2019-01-27T02:58:09.714Z,98121.17
2019-01-27T03:00:38.635Z,98113.20
2019-01-27T03:03:07.116Z,98114.06
2019-01-27T03:05:52.416Z,98104.89
2019-01-27T03:08:20.960Z,98106.23
2019-01-27T03:10:49.511Z,98101.77
2019-01-27T03:13:17.948Z,98099.57
2019-01-27T03:15:46.359Z,98094.50
2019-01-27T03:18:14.868Z,98089.14
2019-01-27T03:20:43.342Z,98082.88
2019-01-27T03:23:11.746Z,98075.28
2019-01-27T03:25:40.208Z,98073.02
2019-01-27T03:28:08.658Z,98069.14
2019-01-27T03:30:37.165Z,98061.34
2019-01-27T03:33:05.665Z,98055.02
2019-01-27T03:35:34.087Z,98051.09
2019-01-27T03:38:02.582Z,98037.57
2019-01-27T03:40:31.208Z,98034.10
2019-01-27T03:42:59.641Z,98024.70
2019-01-27T03:45:28.068Z,98025.56
2019-01-27T03:47:56.495Z,98019.64
2019-01-27T03:50:24.924Z,98018.14
2019-01-27T03:52:53.327Z,98019.03
2019-01-27T03:55:29.569Z,98015.72
2019-01-27T03:57:57.995Z,98007.83
2019-01-27T04:00:26.477Z,97998.03
2019-01-27T04:02:56.638Z,97990.42
2019-01-27T04:05:25.083Z,97981.40
2019-01-27T04:07:53.557Z,97975.51
2019-01-27T04:10:24.367Z,97967.17
2019-01-27T04:12:52.872Z,97961.25
2019-01-27T04:15:21.459Z,97961.85
2019-01-27T04:17:49.893Z,97961.57
2019-01-27T04:20:22.538Z,97960.09
2019-01-27T04:22:51.056Z,97954.30
2019-01-27T04:25:19.784Z,97953.80
2019-01-27T04:27:48.401Z,97949.91
2019-01-27T04:30:21.117Z,97939.45
2019-01-27T04:32:49.620Z,97935.20
2019-01-27T04:35:18.106Z,97932.72
2019-01-27T04:37:46.620Z,97932.67
2019-01-27T04:40:17.896Z,97928.05
2019-01-27T04:42:46.713Z,97921.48
2019-01-27T04:45:18.570Z,97918.33
2019-01-27T04:47:47.019Z,97921.27
2019-01-27T04:50:15.551Z,97917.14
2019-01-27T04:52:44.042Z,97907.00
2019-01-27T04:55:15.210Z,97900.56
2019-01-27T04:57:43.791Z,97900.44
2019-01-27T05:00:26.713Z,97898.40
2019-01-27T05:03:05.104Z,97902.64
2019-01-27T05:05:33.544Z,97895.09
2019-01-27T05:08:01.949Z,97895.58
2019-01-27T05:10:30.376Z,97898.84
2019-01-27T05:12:58.783Z,97886.06
2019-01-27T05:15:28.835Z,97894.48
2019-01-27T05:17:57.351Z,97888.59
2019-01-27T05:20:25.776Z,97878.46
2019-01-27T05:22:54.208Z,97872.05
2019-01-27T05:25:22.698Z,97873.89
2019-01-27T05:27:51.267Z,97865.44
2019-01-27T05:30:24.184Z,97863.43
2019-01-27T05:32:52.598Z,97862.98
2019-01-27T05:35:21.184Z,97858.91
2019-01-27T05:37:49.666Z,97848.05
2019-01-27T05:40:24.128Z,97850.58
2019-01-27T05:42:52.545Z,97841.66
2019-01-27T05:45:24.463Z,97834.56
2019-01-27T05:47:52.874Z,97839.91
2019-01-27T05:50:21.617Z,97836.06
2019-01-27T05:52:50.145Z,97829.06
2019-01-27T05:55:20.470Z,97826.53
2019-01-27T05:57:49.347Z,97819.42
2019-01-27T06:00:22.335Z,97822.45
2019-01-27T06:02:50.826Z,97817.49
2019-01-27T06:05:19.236Z,97815.69
2019-01-27T06:07:47.679Z,97811.16
2019-01-27T06:10:16.821Z,97812.87
2019-01-27T06:12:45.233Z,97801.70
2019-01-27T06:15:18.987Z,97794.09
2019-01-27T06:17:47.654Z,97792.75
2019-01-27T06:20:17.216Z,97787.27
2019-01-27T06:22:45.747Z,97790.39
2019-01-27T06:25:19.525Z,97792.06
2019-01-27T06:27:48.186Z,97782.70
2019-01-27T06:30:27.327Z,97775.09
2019-01-27T06:32:57.482Z,97786.09
2019-01-27T06:35:25.934Z,97774.59
2019-01-27T06:37:54.432Z,97772.52
2019-01-27T06:40:22.861Z,97762.11
2019-01-27T06:42:51.385Z,97762.51
2019-01-27T06:45:19.785Z,97754.68
2019-01-27T06:47:48.215Z,97758.84
2019-01-27T06:50:18.136Z,97751.25
2019-01-27T06:52:46.539Z,97751.70
2019-01-27T06:55:20.145Z,97763.16
2019-01-27T06:57:48.633Z,97749.05
2019-01-27T07:00:26.554Z,97758.14
2019-01-27T07:02:56.683Z,97755.88
2019-01-27T07:05:32.298Z,97755.03
2019-01-27T07:08:11.185Z,97747.01
2019-01-27T07:10:41.347Z,97752.45
2019-01-27T07:13:11.400Z,97752.89
2019-01-27T07:15:44.423Z,97747.10
2019-01-27T07:18:26.665Z,97748.20
2019-01-27T07:20:59.475Z,97755.80
2019-01-27T07:23:35.555Z,97750.31
2019-01-27T07:26:11.108Z,97742.31
2019-01-27T07:28:46.990Z,97738.56
2019-01-27T07:31:17.034Z,97743.67
2019-01-27T07:33:49.745Z,97738.82
2019-01-27T07:36:38.033Z,97734.39
2019-01-27T07:39:10.419Z,97724.20
2019-01-27T07:41:43.474Z,97728.64
2019-01-27T07:44:13.530Z,97715.44
2019-01-27T07:46:49.551Z,97724.17
2019-01-27T07:49:22.674Z,97725.20
2019-01-27T07:51:52.739Z,97723.17
2019-01-27T07:54:25.770Z,97730.27
2019-01-27T07:56:58.924Z,97723.17
2019-01-27T07:59:46.814Z,97715.06
2019-01-27T08:02:20.042Z,97716.95
2019-01-27T08:04:50.105Z,97716.09
2019-01-27T08:07:38.465Z,97714.11
2019-01-27T08:10:11.916Z,97710.06
2019-01-27T08:12:47.761Z,97697.78
2019-01-27T08:15:17.856Z,97694.66
2019-01-27T08:17:50.985Z,97698.09
2019-01-27T08:20:27.355Z,97697.50
2019-01-27T08:22:57.583Z,97688.31
2019-01-27T08:25:44.139Z,97691.86
2019-01-27T08:28:14.294Z,97688.71
2019-01-27T08:30:59.376Z,97687.50
2019-01-27T08:33:38.031Z,97678.31
2019-01-27T08:36:08.253Z,97676.54
2019-01-27T08:38:38.412Z,97675.08
2019-01-27T08:41:08.493Z,97672.23
2019-01-27T08:43:44.317Z,97667.27
2019-01-27T08:46:14.464Z,97666.66
2019-01-27T08:48:44.299Z,97665.69
2019-01-27T08:51:12.749Z,97665.55
2019-01-27T08:53:41.213Z,97670.97
2019-01-27T08:56:09.623Z,97660.93
2019-01-27T08:58:38.030Z,97646.41
2019-01-27T09:01:08.167Z,97649.12
2019-01-27T09:03:50.129Z,97649.77
2019-01-27T09:06:25.799Z,97641.50
2019-01-27T09:08:58.588Z,97637.29
2019-01-27T09:11:34.429Z,97634.88
2019-01-27T09:14:16.402Z,97630.33
2019-01-27T09:16:46.858Z,97621.09
2019-01-27T09:19:20.083Z,97626.23
2019-01-27T09:21:53.282Z,97618.86
2019-01-27T09:24:23.860Z,97615.83
2019-01-27T09:27:06.078Z,97616.52
2019-01-27T09:29:36.609Z,97621.83
2019-01-27T09:32:12.822Z,97617.94
2019-01-27T09:34:46.050Z,97621.67
2019-01-27T09:37:33.809Z,97620.73
2019-01-27T09:40:09.389Z,97630.05
2019-01-27T09:42:54.837Z,97625.94
2019-01-27T09:45:27.706Z,97625.25
2019-01-27T09:48:03.503Z,97620.69
2019-01-27T09:50:45.000Z,97623.09
2019-01-27T09:53:15.107Z,97615.40
2019-01-27T09:56:03.005Z,97612.08
2019-01-27T09:58:33.192Z,97613.45
2019-01-27T10:01:06.071Z,97610.94
2019-01-27T10:03:41.869Z,97613.54
2019-01-27T10:06:14.642Z,97615.09
2019-01-27T10:08:47.453Z,97610.45
2019-01-27T10:11:17.490Z,97608.10
2019-01-27T10:14:05.781Z,97599.16
2019-01-27T10:16:35.871Z,97595.91
2019-01-27T10:19:12.060Z,97592.76
2019-01-27T10:21:42.127Z,97591.61
2019-01-27T10:24:14.685Z,97576.91
2019-01-27T10:26:53.552Z,97579.41
2019-01-27T10:29:26.540Z,97574.75
2019-01-27T10:31:56.646Z,97563.97
2019-01-27T10:34:29.631Z,97568.66
2019-01-27T10:37:12.093Z,97557.67
2019-01-27T10:39:40.072Z,97553.42
2019-01-27T10:42:10.164Z,97561.77
2019-01-27T10:44:45.944Z,97554.02
2019-01-27T10:47:31.968Z,97560.83
2019-01-27T10:50:11.423Z,97558.72
2019-01-27T10:52:45.125Z,97560.45
2019-01-27T10:55:15.621Z,97564.50
2019-01-27T10:58:02.013Z,97557.40
2019-01-27T11:00:47.324Z,97552.91
2019-01-27T11:03:26.469Z,97550.48
2019-01-27T11:05:56.825Z,97549.23
2019-01-27T11:08:26.888Z,97544.72
2019-01-27T11:11:13.525Z,97546.31
2019-01-27T11:14:01.469Z,97530.55
2019-01-27T11:16:34.597Z,97532.81
2019-01-27T11:19:04.836Z,97531.97
2019-01-27T11:21:37.473Z,97529.46
2019-01-27T11:24:22.665Z,97520.55
2019-01-27T11:26:59.852Z,97522.39
2019-01-27T11:29:30.731Z,97515.81
2019-01-27T11:32:19.239Z,97512.34
2019-01-27T11:34:52.065Z,97498.70
2019-01-27T11:37:22.284Z,97502.50
2019-01-27T11:40:04.765Z,97505.55
2019-01-27T11:42:46.827Z,97485.14
2019-01-27T11:45:33.366Z,97497.19
2019-01-27T11:48:23.360Z,97490.46
2019-01-27T11:50:53.726Z,97474.02
2019-01-27T11:53:22.532Z,97466.12
2019-01-27T11:55:51.274Z,97472.41
2019-01-27T11:58:20.020Z,97474.52
2019-01-27T12:00:49.952Z,97470.45
2019-01-27T12:03:18.694Z,97470.26
2019-01-27T12:05:47.210Z,97465.36
2019-01-27T12:08:15.621Z,97470.89
2019-01-27T12:10:45.419Z,97456.72
2019-01-27T12:13:14.395Z,97464.71
2019-01-27T12:15:43.053Z,97465.09
2019-01-27T12:18:11.531Z,97463.09
2019-01-27T12:20:40.007Z,97465.72
2019-01-27T12:23:08.734Z,97464.36
2019-01-27T12:25:37.275Z,97460.08
2019-01-27T12:28:06.370Z,97461.70
2019-01-27T12:30:35.175Z,97452.35
2019-01-27T12:33:03.737Z,97443.35
2019-01-27T12:35:32.374Z,97449.53
2019-01-27T12:38:00.819Z,97439.95
2019-01-27T12:40:29.472Z,97432.97
2019-01-27T12:42:57.868Z,97431.58
2019-01-27T12:45:26.390Z,97440.49
2019-01-27T12:47:54.991Z,97433.01
2019-01-27T12:50:23.583Z,97436.94
2019-01-27T12:52:53.660Z,97428.42
2019-01-27T12:55:22.091Z,97424.31
2019-01-27T12:57:51.762Z,97423.04
2019-01-27T13:00:26.610Z,97427.23
2019-01-27T13:02:55.070Z,97427.97
2019-01-27T13:05:23.516Z,97413.23
2019-01-27T13:07:52.138Z,97433.88
2019-01-27T13:10:21.228Z,97409.75
2019-01-27T13:12:49.629Z,97409.31
2019-01-27T13:15:20.953Z,97406.64
2019-01-27T13:17:49.397Z,97410.73
2019-01-27T13:20:17.941Z,97404.28
2019-01-27T13:22:46.474Z,97394.41
2019-01-27T13:25:17.320Z,97396.88
2019-01-27T13:27:45.815Z,97391.83
2019-01-27T13:30:20.013Z,97385.19
2019-01-27T13:32:49.655Z,97394.70
2019-01-27T13:35:18.798Z,97391.35
2019-01-27T13:37:47.302Z,97389.13
2019-01-27T13:40:18.212Z,97384.38
2019-01-27T13:42:46.823Z,97376.77
2019-01-27T13:45:32.009Z,97379.69
2019-01-27T13:48:00.586Z,97377.44
2019-01-27T13:50:29.216Z,97379.91
2019-01-27T13:52:57.799Z,97381.03
2019-01-27T13:55:29.089Z,97389.48
2019-01-27T13:57:57.503Z,97389.56
2019-01-27T14:00:28.915Z,97383.39
2019-01-27T14:02:57.428Z,97378.02
2019-01-27T14:05:26.869Z,97375.20
2019-01-27T14:07:55.420Z,97372.47
2019-01-27T14:10:29.294Z,97374.82
2019-01-27T14:12:58.388Z,97367.84
2019-01-27T14:15:29.605Z,97366.83
2019-01-27T14:17:58.028Z,97366.09
2019-01-27T14:20:28.046Z,97368.05
2019-01-27T14:22:56.617Z,97374.56
2019-01-27T14:25:28.520Z,97369.47
2019-01-27T14:27:57.506Z,97373.59
2019-01-27T14:30:31.807Z,97369.04
2019-01-27T14:33:00.576Z,97362.55
2019-01-27T14:35:28.998Z,97363.64
2019-01-27T14:37:57.416Z,97364.37
2019-01-27T14:40:28.077Z,97358.73
2019-01-27T14:42:56.498Z,97362.09
2019-01-27T14:45:31.307Z,97360.14
2019-01-27T14:48:00.570Z,97363.42
2019-01-27T14:50:31.755Z,97365.75
2019-01-27T14:53:01.171Z,97367.30
2019-01-27T14:55:29.733Z,97362.05
2019-01-27T14:57:58.139Z,97369.87
2019-01-27T15:00:41.553Z,97373.30
2019-01-27T15:03:10.422Z,97371.67
2019-01-27T15:05:39.030Z,97363.63
2019-01-27T15:08:08.030Z,97364.44
2019-01-27T15:10:37.178Z,97372.34
2019-01-27T15:13:07.148Z,97377.41
2019-01-27T15:15:35.625Z,97376.52
2019-01-27T15:18:05.257Z,97376.20
2019-01-27T15:20:39.630Z,97374.38
2019-01-27T15:23:08.049Z,97374.23
2019-01-27T15:25:36.446Z,97376.42
2019-01-27T15:28:05.130Z,97372.54
2019-01-27T15:30:35.566Z,97374.72
2019-01-27T15:33:04.756Z,97365.09
2019-01-27T15:35:33.295Z,97370.34
2019-01-27T15:38:01.854Z,97375.00
2019-01-27T15:40:30.273Z,97371.86
2019-01-27T15:42:58.764Z,97380.40
2019-01-27T15:45:29.541Z,97375.03
2019-01-27T15:47:58.666Z,97375.48
2019-01-27T15:50:35.967Z,97378.02
2019-01-27T15:53:05.704Z,97375.95
2019-01-27T15:55:35.856Z,97374.34
2019-01-27T15:58:04.667Z,97379.58
2019-01-27T16:00:33.489Z,97374.05
2019-01-27T16:03:03.036Z,97377.88
2019-01-27T16:05:31.482Z,97374.36
2019-01-27T16:07:59.899Z,97380.48
2019-01-27T16:10:29.181Z,97377.52
2019-01-27T16:12:58.542Z,97375.18
2019-01-27T16:15:29.135Z,97371.24
2019-01-27T16:17:57.625Z,97378.30
2019-01-27T16:20:26.511Z,97375.30
2019-01-27T16:22:56.648Z,97373.81
2019-01-27T16:25:25.112Z,97382.98
2019-01-27T16:27:53.610Z,97381.03
2019-01-27T16:30:44.549Z,97384.77
2019-01-27T16:33:11.763Z,97381.93
2019-01-27T16:35:40.187Z,97391.11
2019-01-27T16:38:08.719Z,97390.00
2019-01-27T16:40:39.677Z,97381.70
2019-01-27T16:43:09.007Z,97381.70
2019-01-27T16:45:37.715Z,97384.18
2019-01-27T16:48:06.400Z,97386.27
2019-01-27T16:50:34.967Z,97388.80
2019-01-27T16:53:03.392Z,97394.33
2019-01-27T16:55:31.855Z,97395.22
2019-01-27T16:58:00.311Z,97384.48
2019-01-27T17:00:31.002Z,97384.70
2019-01-27T17:02:59.668Z,97381.70
2019-01-27T17:05:28.349Z,97380.44
2019-01-27T17:07:57.555Z,97381.54
2019-01-27T17:10:28.658Z,97387.30
2019-01-27T17:12:57.072Z,97387.23
2019-01-27T17:15:25.856Z,97375.95
2019-01-27T17:17:54.287Z,97393.87
2019-01-27T17:20:26.318Z,97384.99
2019-01-27T17:22:55.389Z,97384.63
2019-01-27T17:25:23.954Z,97386.66
2019-01-27T17:27:52.376Z,97389.72
2019-01-27T17:30:28.679Z,97392.67
2019-01-27T17:32:57.287Z,97389.10
2019-01-27T17:35:26.760Z,97384.81
2019-01-27T17:37:55.527Z,97390.89
2019-01-27T17:40:24.083Z,97379.34
2019-01-27T17:42:52.684Z,97379.73
2019-01-27T17:45:26.777Z,97390.73
2019-01-27T17:47:55.267Z,97386.47
2019-01-27T17:50:25.217Z,97388.67
2019-01-27T17:52:54.055Z,97378.92
2019-01-27T17:55:45.385Z,97385.56
2019-01-27T17:58:37.335Z,97394.63
2019-01-27T18:01:19.979Z,97387.54
2019-01-27T18:04:08.155Z,97379.34
2019-01-27T18:06:50.504Z,97383.22
2019-01-27T18:09:20.617Z,97382.75
2019-01-27T18:11:50.664Z,97391.56
2019-01-27T18:14:20.739Z,97396.80
2019-01-27T18:16:49.193Z,97388.22
2019-01-27T18:19:17.606Z,97388.64
2019-01-27T18:21:46.059Z,97396.13
2019-01-27T18:24:14.511Z,97395.73
2019-01-27T18:26:42.927Z,97397.56
2019-01-27T18:29:11.369Z,97406.86
2019-01-27T18:31:39.780Z,97396.36
2019-01-27T18:34:15.842Z,97395.41
2019-01-27T18:36:44.378Z,97403.84
2019-01-27T18:39:12.912Z,97411.33
2019-01-27T18:41:41.501Z,97406.31
2019-01-27T18:44:10.099Z,97410.41
2019-01-27T18:46:38.561Z,97416.14
2019-01-27T18:49:07.092Z,97416.01
2019-01-27T18:51:37.689Z,97421.50
2019-01-27T18:54:17.165Z,97421.73
2019-01-27T18:56:47.252Z,97425.86
2019-01-27T18:59:19.789Z,97425.66
2019-01-27T19:01:49.889Z,97430.73
2019-01-27T19:04:20.111Z,97432.40
2019-01-27T19:06:53.280Z,97433.27
2019-01-27T19:09:29.360Z,97435.91
2019-01-27T19:12:07.901Z,97439.26
2019-01-27T19:14:40.923Z,97438.56
2019-01-27T19:17:27.045Z,97443.42
2019-01-27T19:19:59.779Z,97443.06
2019-01-27T19:22:46.154Z,97441.92
2019-01-27T19:25:19.167Z,97446.58
2019-01-27T19:28:02.268Z,97442.47
2019-01-27T19:30:38.483Z,97454.70
2019-01-27T19:33:08.609Z,97449.17
2019-01-27T19:35:47.502Z,97457.14
2019-01-27T19:38:20.385Z,97461.41
2019-01-27T19:40:56.168Z,97462.66
2019-01-27T19:43:35.031Z,97459.45
2019-01-27T19:46:05.109Z,97461.36
2019-01-27T19:48:35.207Z,97461.73
2019-01-27T19:51:08.077Z,97458.19
2019-01-27T19:53:41.070Z,97468.64
2019-01-27T19:56:11.120Z,97466.31
2019-01-27T19:58:41.954Z,97467.85
2019-01-27T20:01:17.748Z,97474.05
2019-01-27T20:04:05.846Z,97472.77
2019-01-27T20:06:38.964Z,97476.97
2019-01-27T20:09:19.311Z,97486.52
2019-01-27T20:11:49.447Z,97486.96
2019-01-27T20:14:19.588Z,97490.77
2019-01-27T20:17:06.000Z,97492.94
2019-01-27T20:19:39.104Z,97497.25
2019-01-27T20:22:15.112Z,97498.12
2019-01-27T20:24:57.041Z,97504.98
2019-01-27T20:27:35.821Z,97502.95
2019-01-27T20:30:14.559Z,97503.41
2019-01-27T20:32:44.635Z,97504.38
2019-01-27T20:35:14.729Z,97513.91
2019-01-27T20:37:47.818Z,97513.41
2019-01-27T20:40:23.339Z,97523.30
2019-01-27T20:42:53.579Z,97529.50
2019-01-27T20:45:38.526Z,97536.88
2019-01-27T20:48:14.864Z,97539.16
2019-01-27T20:50:47.622Z,97543.33
2019-01-27T20:53:17.696Z,97544.73
2019-01-27T20:56:02.675Z,97540.98
2019-01-27T20:58:38.714Z,97547.77
2019-01-27T21:01:10.229Z,97542.08
2019-01-27T21:03:52.581Z,97554.33
2019-01-27T21:06:38.721Z,97556.61
2019-01-27T21:09:13.192Z,97555.98
2019-01-27T21:11:45.764Z,97566.85
2019-01-27T21:14:24.787Z,97563.19
2019-01-27T21:17:04.048Z,97574.31
2019-01-27T21:19:34.126Z,97577.80
2019-01-27T21:22:02.556Z,97581.52
2019-01-27T21:24:31.338Z,97588.48
2019-01-27T21:26:59.901Z,97592.69
2019-01-27T21:29:28.312Z,97593.23
2019-01-27T21:31:56.824Z,97602.86
2019-01-27T21:34:25.237Z,97599.24
2019-01-27T21:36:53.708Z,97603.58
2019-01-27T21:39:22.151Z,97605.25
2019-01-27T21:41:50.626Z,97612.84
2019-01-27T21:44:18.989Z,97615.10
2019-01-27T21:46:47.431Z,97614.56
2019-01-27T21:49:15.841Z,97622.10
2019-01-27T21:51:44.299Z,97623.73
2019-01-27T21:54:12.801Z,97627.33
2019-01-27T21:56:41.239Z,97632.31
2019-01-27T21:59:09.668Z,97625.63
2019-01-27T22:01:38.097Z,97628.92
2019-01-27T22:04:06.528Z,97631.63
2019-01-27T22:06:34.962Z,97632.17
2019-01-27T22:09:04.879Z,97634.25
2019-01-27T22:11:33.305Z,97644.86
2019-01-27T22:14:01.744Z,97644.09
2019-01-27T22:16:30.173Z,97647.19
2019-01-27T22:18:58.606Z,97644.98
2019-01-27T22:21:27.027Z,97653.41
2019-01-27T22:23:55.471Z,97654.22
2019-01-27T22:26:23.905Z,97659.98
2019-01-27T22:28:52.340Z,97660.99
2019-01-27T22:31:20.783Z,97662.47
2019-01-27T22:33:49.235Z,97666.96
2019-01-27T22:36:17.660Z,97671.13
2019-01-27T22:38:46.082Z,97676.47
2019-01-27T22:41:14.518Z,97672.39
2019-01-27T22:43:42.962Z,97672.52
2019-01-27T22:46:11.513Z,97686.75
2019-01-27T22:48:39.976Z,97684.42
2019-01-27T22:51:08.470Z,97683.16
2019-01-27T22:53:36.904Z,97683.11
2019-01-27T22:56:05.479Z,97691.56
2019-01-27T22:58:33.908Z,97692.01
2019-01-27T23:01:04.227Z,97690.05
2019-01-27T23:03:33.612Z,97691.56
2019-01-27T23:06:02.015Z,97691.30
2019-01-27T23:08:30.431Z,97692.17
2019-01-27T23:10:58.885Z,97699.14
2019-01-27T23:13:27.351Z,97700.41
2019-01-27T23:15:55.858Z,97697.95
2019-01-27T23:18:24.304Z,97702.93
2019-01-27T23:20:52.736Z,97703.30
2019-01-27T23:23:21.242Z,97709.00
2019-01-27T23:25:50.488Z,97712.62
2019-01-27T23:28:19.146Z,97713.59
2019-01-27T23:30:47.561Z,97719.61
2019-01-27T23:33:16.091Z,97718.55
2019-01-27T23:35:44.547Z,97724.30
2019-01-27T23:38:12.951Z,97725.60
2019-01-27T23:40:41.372Z,97720.39
2019-01-27T23:43:09.911Z,97727.78
2019-01-27T23:45:38.315Z,97731.46
2019-01-27T23:48:06.824Z,97729.78
2019-01-27T23:50:35.257Z,97726.81
2019-01-27T23:53:03.961Z,97731.42
2019-01-27T23:55:32.414Z,97730.64
2019-01-27T23:58:00.825Z,97733.62
